createdAt,value
2019-03-25T00:01:06.671Z,2.80
2019-03-25T00:03:38.380Z,2.80
2019-03-25T00:06:09.751Z,2.80
2019-03-25T00:08:41.276Z,2.90
2019-03-25T00:11:12.876Z,2.80
2019-03-25T00:13:44.290Z,2.90
2019-03-25T00:16:15.689Z,2.90
2019-03-25T00:18:47.384Z,3.00
2019-03-25T00:21:18.614Z,3.00
2019-03-25T00:23:50.822Z,3.00
2019-03-25T00:26:22.383Z,3.10
2019-03-25T00:28:53.920Z,3.10
2019-03-25T00:31:25.394Z,3.10
2019-03-25T00:33:56.864Z,3.10
2019-03-25T00:36:28.117Z,3.10
2019-03-25T00:38:59.524Z,3.10
2019-03-25T00:41:30.819Z,3.20
2019-03-25T00:44:02.176Z,3.20
2019-03-25T00:46:33.621Z,3.20
2019-03-25T00:49:04.807Z,3.20
2019-03-25T00:51:35.987Z,3.30
2019-03-25T00:54:07.312Z,3.30
2019-03-25T00:56:38.750Z,3.30
2019-03-25T00:59:10.152Z,3.30
2019-03-25T01:01:41.275Z,3.30
2019-03-25T01:04:12.601Z,3.20
2019-03-25T01:06:44.124Z,3.20
2019-03-25T01:09:15.489Z,3.30
2019-03-25T01:11:49.357Z,3.30
2019-03-25T01:14:19.932Z,3.30
2019-03-25T01:16:51.219Z,3.30
2019-03-25T01:19:22.683Z,3.30
2019-03-25T01:21:54.184Z,3.30
2019-03-25T01:24:25.617Z,3.30
2019-03-25T01:26:57.185Z,3.30
2019-03-25T01:29:28.720Z,3.30
2019-03-25T01:32:00.277Z,3.30
2019-03-25T01:34:31.703Z,3.30
2019-03-25T01:37:03.114Z,3.30
2019-03-25T01:39:34.832Z,3.30
2019-03-25T01:42:06.181Z,3.30
2019-03-25T01:44:37.839Z,3.30
2019-03-25T01:47:09.075Z,3.40
2019-03-25T01:49:40.555Z,3.40
2019-03-25T01:52:12.109Z,3.40
2019-03-25T01:54:43.508Z,3.30
2019-03-25T01:57:14.878Z,3.40
2019-03-25T01:59:46.341Z,3.40
2019-03-25T02:02:17.841Z,3.40
2019-03-25T02:04:49.468Z,3.30
2019-03-25T02:07:21.040Z,3.30
2019-03-25T02:09:52.279Z,3.30
2019-03-25T02:12:23.732Z,3.30
2019-03-25T02:14:55.250Z,3.30
2019-03-25T02:17:26.756Z,3.30
2019-03-25T02:19:58.248Z,3.30
2019-03-25T02:22:29.902Z,3.30
2019-03-25T02:25:01.594Z,3.30
2019-03-25T02:27:33.048Z,3.20
2019-03-25T02:30:04.657Z,3.30
2019-03-25T02:32:36.076Z,3.20
2019-03-25T02:35:07.661Z,3.20
2019-03-25T02:37:39.178Z,3.20
2019-03-25T02:40:10.417Z,3.20
2019-03-25T02:42:42.795Z,3.20
2019-03-25T02:45:14.109Z,3.20
2019-03-25T02:47:45.568Z,3.10
2019-03-25T02:50:16.804Z,3.10
2019-03-25T02:52:48.108Z,3.10
2019-03-25T02:55:19.609Z,3.10
2019-03-25T02:57:51.104Z,3.00
2019-03-25T03:00:36.976Z,3.10
2019-03-25T03:03:08.846Z,3.10
2019-03-25T03:05:40.351Z,3.00
2019-03-25T03:08:11.855Z,2.90
2019-03-25T03:10:43.058Z,2.90
2019-03-25T03:13:14.338Z,2.90
2019-03-25T03:15:45.672Z,2.90
2019-03-25T03:18:16.976Z,2.90
2019-03-25T03:20:48.274Z,2.90
2019-03-25T03:23:19.617Z,2.90
2019-03-25T03:25:57.701Z,2.90
2019-03-25T03:28:24.066Z,2.90
2019-03-25T03:30:55.527Z,2.90
2019-03-25T03:33:26.993Z,2.90
2019-03-25T03:35:58.339Z,2.90
2019-03-25T03:38:29.677Z,2.90
2019-03-25T03:41:00.905Z,2.90
2019-03-25T03:43:32.071Z,2.90
2019-03-25T03:46:03.460Z,2.90
2019-03-25T03:48:34.737Z,2.90
2019-03-25T03:51:06.151Z,2.90
2019-03-25T03:53:37.349Z,2.90
2019-03-25T03:56:13.281Z,2.90
2019-03-25T03:58:41.880Z,3.00
2019-03-25T04:01:13.266Z,3.00
2019-03-25T04:03:44.850Z,3.00
2019-03-25T04:06:15.964Z,3.00
2019-03-25T04:08:47.275Z,3.00
2019-03-25T04:11:18.681Z,3.10
2019-03-25T04:13:50.264Z,3.10
2019-03-25T04:16:21.522Z,3.10
2019-03-25T04:18:52.793Z,3.10
2019-03-25T04:21:24.054Z,3.10
2019-03-25T04:23:55.297Z,3.10
2019-03-25T04:26:29.077Z,3.20
2019-03-25T04:28:59.737Z,3.20
2019-03-25T04:31:31.054Z,3.20
2019-03-25T04:34:02.395Z,3.30
2019-03-25T04:36:33.694Z,3.30
2019-03-25T04:39:06.148Z,3.30
2019-03-25T04:41:37.649Z,3.30
2019-03-25T04:44:09.025Z,3.40
2019-03-25T04:46:40.213Z,3.40
2019-03-25T04:49:11.602Z,3.40
2019-03-25T04:51:44.903Z,3.30
2019-03-25T04:54:16.037Z,3.30
2019-03-25T04:56:47.377Z,3.30
2019-03-25T04:59:18.629Z,3.10
2019-03-25T05:01:50.156Z,3.10
2019-03-25T05:04:21.306Z,3.20
2019-03-25T05:06:52.511Z,3.10
2019-03-25T05:09:24.717Z,3.10
2019-03-25T05:11:56.041Z,3.10
2019-03-25T05:14:27.402Z,3.20
2019-03-25T05:16:58.758Z,3.20
2019-03-25T05:19:30.118Z,3.10
2019-03-25T05:22:01.506Z,3.20
2019-03-25T05:24:32.721Z,3.30
2019-03-25T05:27:04.035Z,3.40
2019-03-25T05:29:35.382Z,3.40
2019-03-25T05:32:06.605Z,3.40
2019-03-25T05:34:37.901Z,3.40
2019-03-25T05:37:09.506Z,3.40
2019-03-25T05:39:40.797Z,3.30
2019-03-25T05:42:12.110Z,3.30
2019-03-25T05:44:43.383Z,3.30
2019-03-25T05:47:14.605Z,3.20
2019-03-25T05:49:46.003Z,3.20
2019-03-25T05:52:17.229Z,3.30
2019-03-25T05:54:48.357Z,3.40
2019-03-25T05:57:19.574Z,3.40
2019-03-25T05:59:51.009Z,3.40
2019-03-25T06:02:22.301Z,3.20
2019-03-25T06:04:53.566Z,3.10
2019-03-25T06:07:24.858Z,2.90
2019-03-25T06:09:56.176Z,2.90
2019-03-25T06:12:27.383Z,3.00
2019-03-25T06:14:58.858Z,3.10
2019-03-25T06:17:30.059Z,3.00
2019-03-25T06:20:01.449Z,3.10
2019-03-25T06:22:32.722Z,3.10
2019-03-25T06:25:03.998Z,2.90
2019-03-25T06:27:35.239Z,2.90
2019-03-25T06:30:07.247Z,2.90
2019-03-25T06:32:38.531Z,2.90
2019-03-25T06:35:09.751Z,2.90
2019-03-25T06:37:41.035Z,3.00
2019-03-25T06:40:12.435Z,2.90
2019-03-25T06:42:43.727Z,3.00
2019-03-25T06:45:15.012Z,3.10
2019-03-25T06:47:46.404Z,3.10
2019-03-25T06:50:17.629Z,3.20
2019-03-25T06:52:48.905Z,3.30
2019-03-25T06:55:20.110Z,3.40
2019-03-25T06:57:52.331Z,3.50
2019-03-25T07:00:24.672Z,3.50
2019-03-25T07:02:56.049Z,3.60
2019-03-25T07:05:28.414Z,3.60
2019-03-25T07:07:59.549Z,3.60
2019-03-25T07:10:34.995Z,3.60
2019-03-25T07:13:06.182Z,3.70
2019-03-25T07:15:37.605Z,3.60
2019-03-25T07:18:08.887Z,3.80
2019-03-25T07:20:40.133Z,3.90
2019-03-25T07:23:11.435Z,3.90
2019-03-25T07:25:42.823Z,4.00
2019-03-25T07:28:14.050Z,4.10
2019-03-25T07:30:45.328Z,4.20
2019-03-25T07:33:16.647Z,4.10
2019-03-25T07:35:47.898Z,4.20
2019-03-25T07:38:19.134Z,4.20
2019-03-25T07:40:50.414Z,4.20
2019-03-25T07:43:21.631Z,4.20
2019-03-25T07:47:58.945Z,4.30
2019-03-25T07:50:31.225Z,4.30
2019-03-25T07:53:02.530Z,4.40
2019-03-25T07:55:33.925Z,4.40
2019-03-25T07:58:05.116Z,4.40
2019-03-25T08:00:36.412Z,4.30
2019-03-25T08:03:07.720Z,4.50
2019-03-25T08:05:39.126Z,4.50
2019-03-25T08:08:10.225Z,4.60
2019-03-25T08:10:41.494Z,4.60
2019-03-25T08:13:12.923Z,4.60
2019-03-25T08:15:44.378Z,4.60
2019-03-25T08:18:15.687Z,4.70
2019-03-25T08:20:47.004Z,4.80
2019-03-25T08:23:18.386Z,4.90
2019-03-25T08:25:49.672Z,5.10
2019-03-25T08:28:21.055Z,5.10
2019-03-25T08:30:52.402Z,5.00
2019-03-25T08:33:24.699Z,4.90
2019-03-25T08:35:56.005Z,5.00
2019-03-25T08:38:27.194Z,5.30
2019-03-25T08:40:58.614Z,5.60
2019-03-25T08:43:30.061Z,5.60
2019-03-25T08:46:01.485Z,5.90
2019-03-25T08:48:33.055Z,6.20
2019-03-25T08:51:04.707Z,6.00
2019-03-25T08:53:36.071Z,5.90
2019-03-25T08:56:07.547Z,5.80
2019-03-25T08:58:38.971Z,5.70
2019-03-25T09:01:10.331Z,5.50
2019-03-25T09:03:41.644Z,5.50
2019-03-25T09:06:13.065Z,5.50
2019-03-25T09:08:44.516Z,5.50
2019-03-25T09:11:16.561Z,5.40
2019-03-25T09:13:47.963Z,5.40
2019-03-25T09:16:19.392Z,5.40
2019-03-25T09:18:50.760Z,5.60
2019-03-25T09:21:22.281Z,5.70
2019-03-25T09:23:53.690Z,5.70
2019-03-25T09:26:25.174Z,5.90
2019-03-25T09:28:57.545Z,5.90
2019-03-25T09:31:36.790Z,6.10
2019-03-25T09:34:02.169Z,6.20
2019-03-25T09:36:33.800Z,6.30
2019-03-25T09:39:06.878Z,6.10
2019-03-25T09:41:38.140Z,6.30
2019-03-25T09:44:09.625Z,6.30
2019-03-25T09:46:41.264Z,6.40
2019-03-25T09:49:12.569Z,6.60
2019-03-25T09:51:44.182Z,6.90
2019-03-25T09:54:15.705Z,7.30
2019-03-25T09:56:48.106Z,7.60
2019-03-25T09:59:19.481Z,7.90
2019-03-25T10:01:50.873Z,8.00
2019-03-25T10:04:22.249Z,8.20
2019-03-25T10:06:55.030Z,8.00
2019-03-25T10:09:26.685Z,8.30
2019-03-25T10:11:58.236Z,8.50
2019-03-25T10:14:29.726Z,7.90
2019-03-25T10:17:01.442Z,8.10
2019-03-25T10:19:32.830Z,7.80
2019-03-25T10:22:04.346Z,7.60
2019-03-25T10:24:35.750Z,7.20
2019-03-25T10:27:07.125Z,7.60
2019-03-25T10:29:38.425Z,7.60
2019-03-25T10:32:09.764Z,7.60
2019-03-25T10:34:41.286Z,7.40
2019-03-25T10:37:12.834Z,7.40
2019-03-25T10:39:44.222Z,7.10
2019-03-25T10:42:15.834Z,7.20
2019-03-25T10:44:47.426Z,7.30
2019-03-25T10:47:18.831Z,7.40
2019-03-25T10:49:50.352Z,7.60
2019-03-25T10:52:21.745Z,7.80
2019-03-25T10:54:53.169Z,7.90
2019-03-25T10:57:24.994Z,8.00
2019-03-25T10:59:56.607Z,8.20
2019-03-25T11:02:28.165Z,8.40
2019-03-25T11:04:59.637Z,8.20
2019-03-25T11:07:32.229Z,8.70
2019-03-25T11:10:03.766Z,9.10
2019-03-25T11:12:35.271Z,9.20
2019-03-25T11:15:06.922Z,9.30
2019-03-25T11:17:38.290Z,9.20
2019-03-25T11:20:09.847Z,9.40
2019-03-25T11:22:41.502Z,10.10
2019-03-25T11:25:13.155Z,10.30
2019-03-25T11:27:53.960Z,10.00
2019-03-25T11:30:19.222Z,10.20
2019-03-25T11:32:50.659Z,10.30
2019-03-25T11:35:22.153Z,10.80
2019-03-25T11:37:53.646Z,11.00
2019-03-25T11:40:25.131Z,11.10
2019-03-25T11:42:56.790Z,11.00
2019-03-25T11:45:28.236Z,10.90
2019-03-25T11:47:59.807Z,10.90
2019-03-25T11:50:31.288Z,10.50
2019-03-25T11:53:04.597Z,9.70
2019-03-25T11:55:36.109Z,9.30
2019-03-25T11:58:07.520Z,8.20
2019-03-25T12:00:38.905Z,7.20
2019-03-25T12:03:10.294Z,6.20
2019-03-25T12:05:42.768Z,6.10
2019-03-25T12:08:14.180Z,5.60
2019-03-25T12:10:45.686Z,5.30
2019-03-25T12:13:17.094Z,5.40
2019-03-25T12:15:48.386Z,5.40
2019-03-25T12:18:19.982Z,5.70
2019-03-25T12:20:52.392Z,6.50
2019-03-25T12:23:26.593Z,7.10
2019-03-25T12:25:56.849Z,7.40
2019-03-25T12:28:28.250Z,7.40
2019-03-25T12:30:59.765Z,7.50
2019-03-25T12:33:31.522Z,7.80
2019-03-25T12:36:03.186Z,8.10
2019-03-25T12:38:34.808Z,8.10
2019-03-25T12:41:06.387Z,8.10
2019-03-25T12:43:37.804Z,7.60
2019-03-25T12:46:09.225Z,7.30
2019-03-25T12:48:40.620Z,7.10
2019-03-25T12:51:11.933Z,7.10
2019-03-25T12:53:43.396Z,7.10
2019-03-25T12:56:14.743Z,7.00
2019-03-25T12:58:46.317Z,7.20
2019-03-25T13:01:18.749Z,7.20
2019-03-25T13:03:50.255Z,7.30
2019-03-25T13:06:21.663Z,7.30
2019-03-25T13:08:54.080Z,7.30
2019-03-25T13:11:25.469Z,7.40
2019-03-25T13:13:56.943Z,7.20
2019-03-25T13:16:28.379Z,7.50
2019-03-25T13:18:59.980Z,7.80
2019-03-25T13:21:31.355Z,7.80
2019-03-25T13:24:02.782Z,8.00
2019-03-25T13:26:34.023Z,8.20
2019-03-25T13:29:06.602Z,8.70
2019-03-25T13:31:38.225Z,8.70
2019-03-25T13:34:11.204Z,8.60
2019-03-25T13:36:42.754Z,8.70
2019-03-25T13:39:14.113Z,8.50
2019-03-25T13:41:45.592Z,8.50
2019-03-25T13:44:16.991Z,8.30
2019-03-25T13:46:48.483Z,8.50
2019-03-25T13:49:20.783Z,8.50
2019-03-25T13:51:52.193Z,8.50
2019-03-25T13:54:23.588Z,8.30
2019-03-25T13:56:55.149Z,8.50
2019-03-25T13:59:27.534Z,8.70
2019-03-25T14:01:59.236Z,8.80
2019-03-25T14:04:30.770Z,8.60
2019-03-25T14:07:03.982Z,8.70
2019-03-25T14:14:36.160Z,9.60
2019-03-25T14:17:07.803Z,9.40
2019-03-25T14:19:39.623Z,9.30
2019-03-25T14:22:11.100Z,9.20
2019-03-25T14:24:42.701Z,8.90
2019-03-25T14:27:14.167Z,8.90
2019-03-25T14:29:45.646Z,8.90
2019-03-25T14:32:17.154Z,8.80
2019-03-25T14:34:48.820Z,8.60
2019-03-25T14:37:20.299Z,8.10
2019-03-25T14:39:51.818Z,8.00
2019-03-25T14:42:23.191Z,8.10
2019-03-25T14:44:54.605Z,8.20
2019-03-25T14:47:26.085Z,8.30
2019-03-25T14:49:57.693Z,8.50
2019-03-25T14:52:29.109Z,8.30
2019-03-25T14:55:00.541Z,8.30
2019-03-25T14:57:31.889Z,8.50
2019-03-25T15:00:03.404Z,8.60
2019-03-25T15:02:36.038Z,8.60
2019-03-25T15:05:07.538Z,8.60
2019-03-25T15:07:38.915Z,8.60
2019-03-25T15:10:10.343Z,8.70
2019-03-25T15:12:41.849Z,8.80
2019-03-25T15:15:13.473Z,8.70
2019-03-25T15:17:45.011Z,9.00
2019-03-25T15:20:16.572Z,8.90
2019-03-25T15:22:47.908Z,9.30
2019-03-25T15:25:21.141Z,9.20
2019-03-25T15:27:52.638Z,9.30
2019-03-25T15:30:24.195Z,9.10
2019-03-25T15:32:55.677Z,8.90
2019-03-25T15:35:27.262Z,8.80
2019-03-25T15:37:58.819Z,8.70
2019-03-25T15:40:30.348Z,8.60
2019-03-25T15:43:01.888Z,8.40
2019-03-25T15:45:33.310Z,8.20
2019-03-25T15:48:04.672Z,8.20
2019-03-25T15:50:36.073Z,8.10
2019-03-25T15:53:07.565Z,8.10
2019-03-25T15:55:38.883Z,8.10
2019-03-25T15:58:10.292Z,8.00
2019-03-25T16:00:47.736Z,8.00
2019-03-25T16:03:14.696Z,7.90
2019-03-25T16:05:47.122Z,8.00
2019-03-25T16:08:18.541Z,8.00
2019-03-25T16:10:51.751Z,8.00
2019-03-25T16:13:23.048Z,8.00
2019-03-25T16:15:57.541Z,8.00
2019-03-25T16:18:41.701Z,7.90
2019-03-25T16:21:13.105Z,8.00
2019-03-25T16:23:44.546Z,7.90
2019-03-25T16:26:16.976Z,7.90
2019-03-25T16:28:48.283Z,7.80
2019-03-25T16:31:19.650Z,7.80
2019-03-25T16:33:51.095Z,7.60
2019-03-25T16:36:22.671Z,7.60
2019-03-25T16:38:54.255Z,7.50
2019-03-25T16:41:25.681Z,7.50
2019-03-25T16:43:56.961Z,7.40
2019-03-25T16:46:28.370Z,7.40
2019-03-25T16:48:59.644Z,7.30
2019-03-25T16:51:31.169Z,7.30
2019-03-25T16:54:02.635Z,7.30
2019-03-25T16:56:34.087Z,7.30
2019-03-25T16:59:05.475Z,7.30
2019-03-25T17:01:36.874Z,7.30
2019-03-25T17:04:08.365Z,7.30
2019-03-25T17:06:39.944Z,7.30
2019-03-25T17:09:11.569Z,7.20
2019-03-25T17:11:44.482Z,7.20
2019-03-25T17:14:15.882Z,7.20
2019-03-25T17:16:47.522Z,7.20
2019-03-25T17:19:18.894Z,7.10
2019-03-25T17:21:58.046Z,7.10
2019-03-25T17:24:23.690Z,7.00
2019-03-25T17:26:55.064Z,7.10
2019-03-25T17:29:26.429Z,7.00
2019-03-25T17:31:57.864Z,7.00
2019-03-25T17:34:29.323Z,6.90
2019-03-25T17:37:00.833Z,6.90
2019-03-25T17:39:33.351Z,6.90
2019-03-25T17:42:04.941Z,6.90
2019-03-25T17:44:36.286Z,6.80
2019-03-25T17:47:07.868Z,6.80
2019-03-25T17:49:39.194Z,6.80
2019-03-25T17:52:10.783Z,6.80
2019-03-25T17:54:42.193Z,6.80
2019-03-25T17:57:13.580Z,6.70
2019-03-25T17:59:45.064Z,6.60
2019-03-25T18:02:16.478Z,6.50
2019-03-25T18:04:48.043Z,6.40
2019-03-25T18:07:19.576Z,6.50
2019-03-25T18:09:51.072Z,6.40
2019-03-25T18:12:22.497Z,6.40
2019-03-25T18:14:54.026Z,6.40
2019-03-25T18:17:25.636Z,6.30
2019-03-25T18:20:00.082Z,6.30
2019-03-25T18:22:39.295Z,6.20
2019-03-25T18:25:04.226Z,6.10
2019-03-25T18:27:35.711Z,6.10
2019-03-25T18:30:07.197Z,6.10
2019-03-25T18:32:38.579Z,6.00
2019-03-25T18:35:11.562Z,6.00
2019-03-25T18:37:43.046Z,5.90
2019-03-25T18:40:14.512Z,5.80
2019-03-25T18:42:47.069Z,5.80
2019-03-25T18:45:18.572Z,5.80
2019-03-25T18:47:50.155Z,5.80
2019-03-25T18:50:21.649Z,5.70
2019-03-25T18:52:53.165Z,5.70
2019-03-25T18:55:24.609Z,5.70
2019-03-25T18:57:56.078Z,5.70
2019-03-25T19:00:34.099Z,5.70
2019-03-25T19:03:05.526Z,5.70
2019-03-25T19:05:36.929Z,5.60
2019-03-25T19:08:08.333Z,5.60
2019-03-25T19:10:39.724Z,5.60
2019-03-25T19:13:11.227Z,5.60
2019-03-25T19:15:42.609Z,5.60
2019-03-25T19:18:14.212Z,5.50
2019-03-25T19:20:45.706Z,5.50
2019-03-25T19:23:17.116Z,5.50
2019-03-25T19:25:48.781Z,5.40
2019-03-25T19:28:20.204Z,5.40
2019-03-25T19:30:51.549Z,5.40
2019-03-25T19:33:23.217Z,5.30
2019-03-25T19:35:54.552Z,5.30
2019-03-25T19:38:26.307Z,5.20
2019-03-25T19:40:57.731Z,5.20
2019-03-25T19:43:30.471Z,5.20
2019-03-25T19:46:02.115Z,5.10
2019-03-25T19:48:33.613Z,5.10
2019-03-25T19:51:05.112Z,5.00
2019-03-25T19:53:36.651Z,5.00
2019-03-25T19:56:08.196Z,5.00
2019-03-25T19:58:40.811Z,4.90
2019-03-25T20:01:12.132Z,4.90
2019-03-25T20:03:43.699Z,4.90
2019-03-25T20:06:25.769Z,4.80
2019-03-25T20:08:48.262Z,4.80
2019-03-25T20:11:19.798Z,4.70
2019-03-25T20:13:51.233Z,4.70
2019-03-25T20:16:22.674Z,4.60
2019-03-25T20:18:54.232Z,4.60
2019-03-25T20:21:25.806Z,4.60
2019-03-25T20:23:57.429Z,4.60
2019-03-25T20:26:28.941Z,4.50
2019-03-25T20:29:00.688Z,4.40
2019-03-25T20:31:32.344Z,4.40
2019-03-25T20:34:10.949Z,4.40
2019-03-25T20:36:36.920Z,4.30
2019-03-25T20:39:09.572Z,4.20
2019-03-25T20:41:41.137Z,4.20
2019-03-25T20:44:12.741Z,4.10
2019-03-25T20:46:44.127Z,4.10
2019-03-25T20:49:15.665Z,4.10
2019-03-25T20:51:47.059Z,4.00
2019-03-25T20:54:18.594Z,4.00
2019-03-25T20:56:50.090Z,3.90
2019-03-25T20:59:21.711Z,3.90
2019-03-25T21:01:53.408Z,3.90
2019-03-25T21:04:24.988Z,3.80
2019-03-25T21:06:56.513Z,3.80
2019-03-25T21:09:28.065Z,3.80
2019-03-25T21:11:59.737Z,3.80
2019-03-25T21:14:31.148Z,3.70
2019-03-25T21:17:02.561Z,3.70
2019-03-25T21:19:34.092Z,3.70
2019-03-25T21:22:05.297Z,3.70
2019-03-25T21:24:36.754Z,3.70
2019-03-25T21:27:08.146Z,3.70
2019-03-25T21:29:39.666Z,3.60
2019-03-25T21:32:10.892Z,3.60
2019-03-25T21:34:42.842Z,3.60
2019-03-25T21:37:14.079Z,3.50
2019-03-25T21:39:45.803Z,3.50
2019-03-25T21:42:17.353Z,3.40
2019-03-25T21:44:48.811Z,3.40
2019-03-25T21:47:20.385Z,3.30
2019-03-25T21:49:52.064Z,3.30
2019-03-25T21:52:23.569Z,3.30
2019-03-25T21:54:55.198Z,3.20
2019-03-25T21:57:26.876Z,3.20
2019-03-25T21:59:58.313Z,3.20
2019-03-25T22:02:29.801Z,3.20
2019-03-25T22:05:00.922Z,3.10
2019-03-25T22:07:32.197Z,3.10
2019-03-25T22:10:03.500Z,3.10
2019-03-25T22:12:34.785Z,3.10
2019-03-25T22:15:09.281Z,3.00
2019-03-25T22:17:40.652Z,3.00
2019-03-25T22:20:12.069Z,3.10
2019-03-25T22:22:44.321Z,3.10
2019-03-25T22:25:15.985Z,3.00
2019-03-25T22:27:47.286Z,3.00
2019-03-25T22:30:18.691Z,3.00
2019-03-25T22:32:49.872Z,3.00
2019-03-25T22:35:21.157Z,3.00
2019-03-25T22:37:52.566Z,3.00
2019-03-25T22:40:23.898Z,3.00
2019-03-25T22:42:55.095Z,3.00
2019-03-25T22:45:30.646Z,3.00
2019-03-25T22:48:01.956Z,3.00
2019-03-25T22:50:33.545Z,3.00
2019-03-25T22:53:04.993Z,3.00
2019-03-25T22:55:36.321Z,3.00
2019-03-25T22:58:07.649Z,3.00
2019-03-25T23:00:42.830Z,2.90
2019-03-25T23:03:14.626Z,2.90
2019-03-25T23:05:45.982Z,2.90
2019-03-25T23:08:17.138Z,2.90
2019-03-25T23:10:48.462Z,2.90
2019-03-25T23:13:19.863Z,2.90
2019-03-25T23:15:51.351Z,2.90
2019-03-25T23:18:22.576Z,3.00
2019-03-25T23:20:53.861Z,3.00
2019-03-25T23:23:25.141Z,3.00
2019-03-25T23:25:56.445Z,3.00
2019-03-25T23:28:27.826Z,3.00
2019-03-25T23:30:59.074Z,3.00
2019-03-25T23:33:30.300Z,3.00
2019-03-25T23:36:02.691Z,3.00
2019-03-25T23:38:33.922Z,3.00
2019-03-25T23:41:05.216Z,3.10
2019-03-25T23:43:36.626Z,3.00
2019-03-25T23:46:07.865Z,3.00
2019-03-25T23:48:39.221Z,3.10
2019-03-25T23:51:10.487Z,3.10
2019-03-25T23:53:41.730Z,3.10
2019-03-25T23:56:13.041Z,3.10
2019-03-25T23:58:44.353Z,3.00
